Time;durP1;ratioP1;P1;durP2;ratioP2;P2;SDS_P1;SDS_P2;PMS_P1;PMS_P2;Temp;Humidity;BMP_temperature;BMP_pressure;BME280_temperature;BME280_humidity;BME280_pressure;Samples;Min_cycle;Max_cycle;Signal;HPM_P1;HPM_P2
2021/01/09 00:02:15;;;;;;;3.13;2.38;;;0.40;99.90;;;;;;5045449;28;20546;-77
2021/01/09 00:04:41;;;;;;;3.28;2.38;;;0.30;99.90;;;;;;5059219;28;20029;-77
2021/01/09 00:07:08;;;;;;;4.10;2.65;;;0.30;99.90;;;;;;5076309;28;20028;-77
2021/01/09 00:09:34;;;;;;;2.88;2.00;;;0.20;99.90;;;;;;5070672;28;20047;-78
2021/01/09 00:12:00;;;;;;;3.72;2.63;;;0.20;99.90;;;;;;5068784;28;20060;-77
2021/01/09 00:14:25;;;;;;;4.07;2.38;;;0.20;99.90;;;;;;5074210;28;20098;-76
2021/01/09 00:16:51;;;;;;;5.57;2.40;;;0.20;99.90;;;;;;5082164;28;20032;-77
2021/01/09 00:19:17;;;;;;;3.45;2.35;;;0.20;99.90;;;;;;5087573;28;20035;-77
2021/01/09 00:21:43;;;;;;;4.28;2.47;;;0.20;99.90;;;;;;5077854;28;20025;-78
2021/01/09 00:24:10;;;;;;;4.18;2.40;;;0.20;99.90;;;;;;5071715;28;20031;-77
2021/01/09 00:26:36;;;;;;;3.65;2.35;;;0.30;99.90;;;;;;5072181;28;20481;-77
2021/01/09 00:29:06;;;;;;;3.53;2.47;;;0.20;99.90;;;;;;5072015;28;20060;-77
2021/01/09 00:31:33;;;;;;;2.90;2.15;;;0.20;99.90;;;;;;5071576;28;20037;-77
2021/01/09 00:33:59;;;;;;;3.90;2.58;;;0.20;99.90;;;;;;5072338;28;20025;-77
2021/01/09 00:36:24;;;;;;;4.03;2.63;;;0.20;99.90;;;;;;5055565;28;20081;-77
2021/01/09 00:38:50;;;;;;;2.85;1.90;;;0.10;99.90;;;;;;5063709;28;20111;-77
2021/01/09 00:41:28;;;;;;;3.58;2.15;;;0.10;99.90;;;;;;5054576;28;20449;-77
2021/01/09 00:43:54;;;;;;;3.65;2.17;;;0.10;99.90;;;;;;5073641;28;20067;-77
2021/01/09 00:46:20;;;;;;;3.38;2.00;;;0.10;99.90;;;;;;5082756;28;20020;-77
2021/01/09 00:48:46;;;;;;;4.07;2.30;;;0.00;99.90;;;;;;5058582;28;20526;-78
2021/01/09 00:51:13;;;;;;;3.33;2.63;;;0.00;99.90;;;;;;5071004;28;20044;-77
2021/01/09 00:53:39;;;;;;;3.25;2.30;;;0.00;99.90;;;;;;5072035;28;20039;-77
2021/01/09 00:56:08;;;;;;;4.85;2.75;;;0.00;99.90;;;;;;5072242;28;20593;-77
2021/01/09 00:58:34;;;;;;;4.32;2.22;;;0.10;99.90;;;;;;5070779;28;20064;-77
2021/01/09 01:01:00;;;;;;;4.38;2.67;;;0.10;99.90;;;;;;5072487;28;20474;-78
2021/01/09 01:03:27;;;;;;;3.05;2.33;;;0.10;99.90;;;;;;5072848;28;20032;-78
2021/01/09 01:05:53;;;;;;;3.22;2.33;;;0.10;99.90;;;;;;5071446;28;20098;-77
2021/01/09 01:08:19;;;;;;;2.85;1.83;;;0.00;99.90;;;;;;5071943;28;20078;-77
2021/01/09 01:10:46;;;;;;;4.07;2.60;;;-0.10;99.90;;;;;;5072170;28;20368;-78
2021/01/09 01:13:12;;;;;;;4.70;2.83;;;-0.10;99.90;;;;;;5072428;28;20088;-78
2021/01/09 01:15:38;;;;;;;5.13;2.60;;;-0.10;99.90;;;;;;5072984;28;20031;-77
2021/01/09 01:18:04;;;;;;;5.43;2.30;;;-0.20;99.90;;;;;;5070878;28;20434;-78
2021/01/09 01:20:29;;;;;;;3.90;2.25;;;-0.20;99.90;;;;;;5070633;28;20043;-77
2021/01/09 01:22:55;;;;;;;4.75;2.08;;;-0.20;99.90;;;;;;5055397;28;20025;-77
2021/01/09 01:25:21;;;;;;;2.92;2.33;;;-0.20;99.90;;;;;;5072565;28;20025;-77
2021/01/09 01:27:47;;;;;;;3.92;2.55;;;-0.20;99.90;;;;;;5070943;28;20121;-78
2021/01/09 01:30:13;;;;;;;5.25;3.08;;;-0.20;99.90;;;;;;5053393;28;20040;-77
2021/01/09 01:32:39;;;;;;;3.47;2.60;;;-0.20;99.90;;;;;;5054833;28;20505;-78
2021/01/09 01:35:05;;;;;;;4.07;2.78;;;-0.20;99.90;;;;;;5067517;28;20028;-78
2021/01/09 01:37:31;;;;;;;3.38;2.28;;;-0.30;99.90;;;;;;5053891;28;20032;-77
2021/01/09 01:39:57;;;;;;;4.82;2.65;;;-0.30;99.90;;;;;;5070192;28;20115;-78
2021/01/09 01:42:22;;;;;;;4.13;2.85;;;-0.30;99.90;;;;;;5072795;28;20048;-77
2021/01/09 01:44:48;;;;;;;4.63;2.60;;;-0.20;99.90;;;;;;5072512;28;20024;-77
2021/01/09 01:47:19;;;;;;;3.75;2.90;;;-0.20;99.90;;;;;;5072459;28;20048;-76
2021/01/09 01:49:45;;;;;;;4.97;2.90;;;-0.30;99.90;;;;;;5071385;28;20035;-77
2021/01/09 01:52:15;;;;;;;6.07;3.15;;;-0.20;99.90;;;;;;5072447;28;20024;-77
2021/01/09 01:54:42;;;;;;;5.53;2.63;;;-0.20;99.90;;;;;;5071345;28;20045;-77
2021/01/09 01:57:09;;;;;;;5.05;2.80;;;-0.20;99.90;;;;;;5070724;28;20032;-77
2021/01/09 01:59:36;;;;;;;3.92;2.63;;;-0.10;99.90;;;;;;5068004;28;20414;-78
2021/01/09 02:02:07;;;;;;;4.60;2.72;;;-0.10;99.90;;;;;;5071841;28;20032;-78
2021/01/09 02:04:33;;;;;;;5.35;3.00;;;-0.10;99.90;;;;;;5070232;28;20506;-77
2021/01/09 02:07:02;;;;;;;5.47;3.35;;;-0.20;99.90;;;;;;5070493;28;20029;-78
2021/01/09 02:09:32;;;;;;;4.43;2.50;;;-0.20;99.90;;;;;;5068789;28;20037;-76
2021/01/09 02:12:16;;;;;;;4.72;3.00;;;-0.30;99.90;;;;;;5071588;28;20125;-77
2021/01/09 02:14:44;;;;;;;5.22;2.83;;;-0.30;99.90;;;;;;5072097;28;20040;-77
2021/01/09 02:17:11;;;;;;;4.28;2.60;;;-0.40;99.90;;;;;;5074736;28;20079;-78
2021/01/09 02:19:38;;;;;;;4.35;2.75;;;-0.40;99.90;;;;;;5073077;28;20115;-77
2021/01/09 02:22:08;;;;;;;4.65;2.63;;;-0.40;99.90;;;;;;5074375;28;20548;-77
2021/01/09 02:24:34;;;;;;;4.40;2.92;;;-0.40;99.90;;;;;;5075255;28;20032;-77
2021/01/09 02:27:02;;;;;;;5.25;2.88;;;-0.40;99.90;;;;;;5073744;28;20083;-77
2021/01/09 02:29:32;;;;;;;5.85;3.08;;;-0.40;99.90;;;;;;5056452;28;20398;-78
2021/01/09 02:32:00;;;;;;;5.22;2.78;;;-0.40;99.90;;;;;;5072703;28;20036;-77
2021/01/09 02:34:48;;;;;;;4.93;2.70;;;-0.40;99.90;;;;;;5069512;28;20048;-77
2021/01/09 02:37:15;;;;;;;5.15;2.45;;;-0.50;99.90;;;;;;5093485;28;20063;-77
2021/01/09 02:39:40;;;;;;;4.30;3.08;;;-0.50;99.90;;;;;;5081391;28;20028;-77
2021/01/09 02:42:07;;;;;;;4.57;2.67;;;-0.50;99.90;;;;;;5040775;28;20120;-77
2021/01/09 02:44:34;;;;;;;3.63;2.38;;;-0.50;99.90;;;;;;5094081;28;20101;-78
2021/01/09 02:47:00;;;;;;;5.18;3.20;;;-0.50;99.90;;;;;;5076987;28;20040;-78
2021/01/09 02:49:26;;;;;;;5.82;2.95;;;-0.50;99.90;;;;;;5075169;28;20036;-78
2021/01/09 02:51:51;;;;;;;4.85;2.90;;;-0.40;99.90;;;;;;5072450;28;20119;-77
2021/01/09 02:54:17;;;;;;;3.70;2.58;;;-0.40;99.90;;;;;;5075538;28;20029;-77
2021/01/09 02:56:43;;;;;;;6.18;2.85;;;-0.50;99.90;;;;;;5073441;28;20111;-77
2021/01/09 02:59:08;;;;;;;6.03;3.13;;;-0.50;99.90;;;;;;5072958;28;20028;-77
2021/01/09 03:01:34;;;;;;;5.63;3.28;;;-0.50;99.90;;;;;;5072634;28;20440;-78
2021/01/09 03:04:00;;;;;;;6.28;3.28;;;-0.50;99.90;;;;;;5040097;28;20036;-77
2021/01/09 03:06:26;;;;;;;6.55;3.35;;;-0.50;99.90;;;;;;5074427;28;20064;-77
2021/01/09 03:08:52;;;;;;;4.97;2.95;;;-0.50;99.90;;;;;;5081355;28;20027;-77
2021/01/09 03:11:18;;;;;;;4.72;3.13;;;-0.60;99.90;;;;;;5093933;28;20131;-77
2021/01/09 03:13:45;;;;;;;4.68;2.67;;;-0.60;99.90;;;;;;5075872;28;20071;-77
2021/01/09 03:16:11;;;;;;;4.13;2.47;;;-0.60;99.90;;;;;;5056262;28;20028;-77
2021/01/09 03:18:37;;;;;;;7.97;3.35;;;-0.70;99.90;;;;;;5072233;28;20043;-77
2021/01/09 03:21:03;;;;;;;8.30;3.88;;;-0.60;99.90;;;;;;5073411;28;20032;-77
2021/01/09 03:23:29;;;;;;;5.50;3.13;;;-0.70;99.90;;;;;;5074567;28;20028;-78
2021/01/09 03:25:54;;;;;;;4.93;2.80;;;-0.70;99.90;;;;;;5072365;28;20403;-78
2021/01/09 03:28:20;;;;;;;6.13;3.50;;;-0.60;99.90;;;;;;5073318;28;20086;-77
2021/01/09 03:30:46;;;;;;;5.82;3.00;;;-0.60;99.90;;;;;;5054788;28;20025;-77
2021/01/09 03:33:12;;;;;;;6.05;3.05;;;-0.60;99.90;;;;;;5072309;28;20119;-78
2021/01/09 03:35:38;;;;;;;6.65;3.40;;;-0.60;99.90;;;;;;5055416;28;20032;-78
2021/01/09 03:38:03;;;;;;;6.15;3.50;;;-0.60;99.90;;;;;;5073399;28;20029;-77
2021/01/09 03:40:29;;;;;;;4.80;3.50;;;-0.70;99.90;;;;;;5071875;28;20641;-78
2021/01/09 03:42:55;;;;;;;5.88;3.30;;;-0.70;99.90;;;;;;5072738;28;20498;-77
2021/01/09 03:45:21;;;;;;;4.32;2.58;;;-0.80;99.90;;;;;;5073310;28;20499;-77
2021/01/09 03:47:46;;;;;;;5.70;2.75;;;-0.80;99.90;;;;;;5087006;28;20039;-77
2021/01/09 03:50:12;;;;;;;6.30;3.20;;;-0.80;99.90;;;;;;5075475;28;20112;-77
2021/01/09 03:52:38;;;;;;;5.15;3.47;;;-0.80;99.90;;;;;;5078542;28;20054;-77
2021/01/09 03:55:04;;;;;;;6.03;3.17;;;-0.80;99.90;;;;;;5081419;28;20028;-78
2021/01/09 03:57:30;;;;;;;5.32;3.28;;;-0.80;99.90;;;;;;5085463;28;20074;-77
2021/01/09 03:59:56;;;;;;;3.83;2.70;;;-0.80;99.90;;;;;;5076562;28;20437;-78
2021/01/09 04:02:21;;;;;;;6.13;3.63;;;-0.80;99.90;;;;;;5073866;28;20031;-77
2021/01/09 04:04:47;;;;;;;5.60;2.80;;;-0.80;99.90;;;;;;5073994;28;20036;-77
2021/01/09 04:07:13;;;;;;;6.25;3.33;;;-0.80;99.90;;;;;;5074497;28;20032;-78
2021/01/09 04:09:39;;;;;;;5.43;2.85;;;-0.80;99.90;;;;;;5084131;28;20085;-77
2021/01/09 04:12:05;;;;;;;4.55;2.92;;;-0.80;99.90;;;;;;5056076;28;20032;-78
2021/01/09 04:14:31;;;;;;;4.03;2.70;;;-0.80;99.90;;;;;;5074833;28;20037;-78
2021/01/09 04:16:57;;;;;;;5.70;3.17;;;-0.90;99.90;;;;;;5052635;28;20085;-77
2021/01/09 04:19:23;;;;;;;6.53;3.00;;;-0.90;99.90;;;;;;5092689;28;20034;-78
2021/01/09 04:21:54;;;;;;;6.68;3.15;;;-0.90;99.90;;;;;;5092076;28;20127;-78
2021/01/09 04:24:24;;;;;;;5.18;3.08;;;-0.90;99.90;;;;;;5094178;28;20058;-77
2021/01/09 04:26:57;;;;;;;5.63;3.03;;;-0.90;99.90;;;;;;5074048;28;20043;-78
2021/01/09 04:29:23;;;;;;;7.72;3.92;;;-0.80;99.90;;;;;;5073360;28;20621;-77
2021/01/09 04:31:50;;;;;;;8.18;3.58;;;-0.80;99.90;;;;;;5068549;28;20036;-77
2021/01/09 04:34:17;;;;;;;7.07;3.40;;;-0.90;99.90;;;;;;5061504;28;20456;-78
2021/01/09 04:36:43;;;;;;;7.38;3.80;;;-0.90;99.90;;;;;;5076453;28;20394;-78
2021/01/09 04:39:09;;;;;;;7.80;3.55;;;-0.90;99.90;;;;;;5089081;28;20394;-78
2021/01/09 04:41:37;;;;;;;6.68;3.45;;;-0.90;99.90;;;;;;5088750;28;20021;-78
2021/01/09 04:44:04;;;;;;;6.22;3.58;;;-0.90;99.90;;;;;;5071495;28;20052;-78
2021/01/09 04:46:33;;;;;;;6.93;3.72;;;-0.90;99.90;;;;;;5054310;28;20563;-78
2021/01/09 04:48:59;;;;;;;7.78;4.30;;;-1.00;99.90;;;;;;5070654;28;20121;-78
2021/01/09 04:51:27;;;;;;;8.85;4.43;;;-1.00;99.90;;;;;;5054026;28;20089;-78
2021/01/09 04:53:54;;;;;;;6.70;3.80;;;-1.00;99.90;;;;;;5070661;28;20028;-78
2021/01/09 04:56:20;;;;;;;8.25;4.07;;;-1.00;99.90;;;;;;5071018;28;20060;-78
2021/01/09 04:58:46;;;;;;;8.02;3.75;;;-1.10;99.90;;;;;;5070257;28;20418;-77
2021/01/09 05:01:13;;;;;;;7.38;3.92;;;-1.20;99.90;;;;;;5070204;28;20029;-78
2021/01/09 05:03:39;;;;;;;7.10;3.35;;;-1.30;99.90;;;;;;5054159;28;20037;-78
2021/01/09 05:06:05;;;;;;;5.57;3.20;;;-1.30;99.90;;;;;;5072406;28;20031;-78
2021/01/09 05:08:31;;;;;;;3.90;2.63;;;-1.30;99.90;;;;;;5070718;28;20060;-77
2021/01/09 05:10:57;;;;;;;7.82;3.33;;;-1.30;99.90;;;;;;5069992;28;20024;-78
2021/01/09 05:13:23;;;;;;;5.78;3.42;;;-1.20;99.90;;;;;;5077055;28;20029;-77
2021/01/09 05:15:53;;;;;;;5.43;3.28;;;-1.20;99.90;;;;;;5091056;28;20165;-78
2021/01/09 05:18:19;;;;;;;6.22;3.30;;;-1.10;99.90;;;;;;5089580;28;20067;-77
2021/01/09 05:20:45;;;;;;;6.65;4.03;;;-1.10;99.90;;;;;;5049495;28;20048;-77
2021/01/09 05:23:11;;;;;;;6.43;3.42;;;-1.10;99.90;;;;;;5062472;28;20048;-78
2021/01/09 05:25:37;;;;;;;6.35;3.67;;;-1.00;99.90;;;;;;5052000;28;20044;-77
2021/01/09 05:28:08;;;;;;;7.03;3.83;;;-1.00;99.90;;;;;;5051749;28;20029;-78
2021/01/09 05:30:33;;;;;;;6.28;3.38;;;-1.00;99.90;;;;;;5050078;28;20205;-78
2021/01/09 05:33:01;;;;;;;4.90;2.97;;;-0.90;99.90;;;;;;5050427;28;20045;-77
2021/01/09 05:35:29;;;;;;;7.55;3.83;;;-0.90;99.90;;;;;;5050465;28;20092;-78
2021/01/09 05:37:55;;;;;;;7.47;3.10;;;-0.80;99.90;;;;;;5034045;28;20037;-78
2021/01/09 05:40:21;;;;;;;5.85;3.30;;;-0.80;99.90;;;;;;5050299;28;20026;-77
2021/01/09 05:42:49;;;;;;;7.25;3.58;;;-0.80;99.90;;;;;;5051582;28;20029;-78
2021/01/09 05:45:16;;;;;;;6.78;3.92;;;-0.70;99.90;;;;;;5050668;28;20037;-77
2021/01/09 05:47:44;;;;;;;6.78;4.00;;;-0.70;99.90;;;;;;5050320;28;20060;-77
2021/01/09 05:50:12;;;;;;;6.82;3.55;;;-0.70;99.90;;;;;;5032677;28;20040;-77
2021/01/09 05:52:41;;;;;;;7.28;3.72;;;-0.70;99.90;;;;;;5055456;28;20040;-78
2021/01/09 05:55:09;;;;;;;7.95;3.70;;;-0.70;99.90;;;;;;5075336;28;20093;-78
2021/01/09 05:57:36;;;;;;;6.38;3.55;;;-0.70;99.90;;;;;;5061121;28;20394;-77
2021/01/09 06:00:14;;;;;;;6.75;3.13;;;-0.70;99.90;;;;;;5093623;28;20108;-77
2021/01/09 06:03:19;;;;;;;6.20;3.58;;;-0.70;99.90;;;;;;5078883;28;20024;-77
2021/01/09 06:05:53;;;;;;;4.28;2.88;;;-0.60;99.90;;;;;;5095558;28;20043;-77
2021/01/09 06:08:25;;;;;;;5.80;3.20;;;-0.60;99.90;;;;;;5092078;28;20057;-77
2021/01/09 06:11:07;;;;;;;5.72;3.10;;;-0.60;99.90;;;;;;5074660;28;20124;-77
2021/01/09 06:13:36;;;;;;;7.95;3.83;;;-0.60;99.90;;;;;;5073859;28;20028;-78
2021/01/09 06:16:06;;;;;;;6.38;3.60;;;-0.60;99.90;;;;;;5080299;28;20067;-77
2021/01/09 06:18:32;;;;;;;6.35;3.25;;;-0.60;99.90;;;;;;5060011;28;20471;-77
2021/01/09 06:20:58;;;;;;;5.65;3.25;;;-0.50;99.90;;;;;;5060514;28;20053;-77
2021/01/09 06:23:24;;;;;;;4.90;2.78;;;-0.60;99.90;;;;;;5074740;28;20399;-78
2021/01/09 06:25:51;;;;;;;5.68;3.40;;;-0.60;99.90;;;;;;5056981;28;20032;-77
2021/01/09 06:28:20;;;;;;;5.95;3.13;;;-0.60;99.90;;;;;;5091171;28;20558;-77
2021/01/09 06:30:53;;;;;;;5.72;3.15;;;-0.60;99.90;;;;;;5089328;28;20036;-77
2021/01/09 06:33:23;;;;;;;6.15;3.13;;;-0.70;99.90;;;;;;5091816;28;20044;-78
2021/01/09 06:35:53;;;;;;;5.10;2.92;;;-0.70;99.90;;;;;;5076974;28;20039;-77
2021/01/09 06:38:19;;;;;;;5.93;3.42;;;-0.70;99.90;;;;;;5089187;28;20029;-77
2021/01/09 06:40:55;;;;;;;5.57;3.00;;;-0.70;99.90;;;;;;5072719;28;20039;-77
2021/01/09 06:43:23;;;;;;;8.55;3.20;;;-0.60;99.90;;;;;;5074418;28;20275;-78
2021/01/09 06:45:49;;;;;;;7.03;3.65;;;-0.60;99.90;;;;;;5056890;28;20037;-78
2021/01/09 06:48:17;;;;;;;6.90;3.78;;;-0.60;99.90;;;;;;5082961;28;20024;-77
2021/01/09 06:50:45;;;;;;;11.88;4.68;;;-0.60;99.90;;;;;;5079689;28;20028;-78
2021/01/09 06:53:21;;;;;;;6.68;3.90;;;-0.60;99.90;;;;;;5081417;28;20478;-78
2021/01/09 06:55:46;;;;;;;7.35;3.92;;;-0.70;99.90;;;;;;5074508;28;20036;-77
2021/01/09 06:58:15;;;;;;;8.52;3.97;;;-0.80;99.90;;;;;;5082450;28;20398;-76
2021/01/09 07:00:41;;;;;;;8.15;4.25;;;-0.90;99.90;;;;;;5057654;28;20104;-77
2021/01/09 07:03:14;;;;;;;8.88;4.72;;;-0.90;99.90;;;;;;5053151;28;20112;-77
2021/01/09 07:05:43;;;;;;;16.95;6.82;;;-1.00;99.90;;;;;;5052890;28;20035;-78
2021/01/09 07:08:10;;;;;;;8.27;4.35;;;-1.00;99.90;;;;;;5054805;28;20037;-77
2021/01/09 07:10:53;;;;;;;8.95;4.75;;;-1.10;99.90;;;;;;5091655;28;20031;-77
2021/01/09 07:13:20;;;;;;;7.32;3.70;;;-1.00;99.90;;;;;;5053040;28;20048;-77
2021/01/09 07:15:47;;;;;;;7.93;3.78;;;-1.10;99.90;;;;;;5053408;28;20029;-78
2021/01/09 07:18:13;;;;;;;7.45;3.47;;;-1.20;99.90;;;;;;5052675;28;20095;-77
2021/01/09 07:20:45;;;;;;;5.75;3.03;;;-1.50;99.90;;;;;;5051543;28;20503;-78
2021/01/09 07:23:16;;;;;;;11.75;5.85;;;-1.60;99.90;;;;;;5053103;28;20037;-78
2021/01/09 07:25:45;;;;;;;9.45;4.78;;;-1.70;99.90;;;;;;5051976;28;20541;-77
2021/01/09 07:28:15;;;;;;;12.35;5.32;;;-1.80;99.90;;;;;;5070441;28;20037;-78
2021/01/09 07:30:41;;;;;;;11.88;5.88;;;-1.90;99.90;;;;;;5080427;28;20038;-78
2021/01/09 07:33:12;;;;;;;11.45;5.57;;;-1.90;99.90;;;;;;5045703;28;20094;-78
2021/01/09 07:35:43;;;;;;;12.70;5.72;;;-1.90;99.90;;;;;;5070541;28;20078;-77
2021/01/09 07:38:42;;;;;;;;;;;-2.00;99.90;;;;;;5065681;28;20146;-78
2021/01/09 07:41:14;;;;;;;14.30;5.65;;;-2.00;99.90;;;;;;5065312;28;19916;-78
2021/01/09 07:43:47;;;;;;;12.10;5.20;;;-1.90;99.90;;;;;;5053082;28;20035;-77
2021/01/09 07:46:29;;;;;;;14.48;5.95;;;-1.80;99.90;;;;;;5045693;28;20016;-78
2021/01/09 07:48:58;;;;;;;10.10;4.03;;;-1.80;99.90;;;;;;5063934;28;20032;-78
2021/01/09 07:51:51;;;;;;;7.63;3.67;;;-1.90;99.90;;;;;;5063079;28;20526;-78
2021/01/09 07:54:40;;;;;;;8.27;3.72;;;-2.00;99.90;;;;;;5063807;28;20046;-77
2021/01/09 07:57:18;;;;;;;10.68;4.60;;;-2.10;99.90;;;;;;5038254;28;20102;-77
2021/01/09 08:00:06;;;;;;;8.60;4.53;;;-2.20;99.90;;;;;;5060634;28;20032;-77
2021/01/09 08:02:33;;;;;;;8.23;4.30;;;-2.20;99.90;;;;;;5065495;28;20025;-77
2021/01/09 08:05:02;;;;;;;7.65;4.13;;;-2.10;99.90;;;;;;5071477;28;20024;-78
2021/01/09 08:07:28;;;;;;;9.45;4.15;;;-2.00;99.90;;;;;;5071826;28;20028;-77
2021/01/09 08:09:54;;;;;;;9.05;4.32;;;-2.00;99.90;;;;;;5053965;28;20036;-78
2021/01/09 08:12:27;;;;;;;8.57;4.28;;;-1.90;99.90;;;;;;5072417;28;20033;-77
2021/01/09 08:14:53;;;;;;;10.73;4.75;;;-1.80;99.90;;;;;;5054019;28;20039;-77
2021/01/09 08:17:21;;;;;;;8.82;4.47;;;-1.80;99.90;;;;;;5052909;28;20036;-78
2021/01/09 08:19:47;;;;;;;8.60;4.45;;;-1.70;99.90;;;;;;5068297;28;20028;-77
2021/01/09 08:22:14;;;;;;;8.20;3.78;;;-1.70;99.90;;;;;;5064870;28;20629;-76
2021/01/09 08:24:40;;;;;;;7.50;3.92;;;-1.60;99.90;;;;;;5059717;28;20029;-77
2021/01/09 08:27:09;;;;;;;7.88;3.97;;;-1.60;99.90;;;;;;5054353;28;20043;-77
2021/01/09 08:29:34;;;;;;;7.70;4.18;;;-1.50;99.90;;;;;;5056652;28;20036;-77
2021/01/09 08:32:02;;;;;;;7.38;3.70;;;-1.50;99.90;;;;;;5046914;28;20036;-77
2021/01/09 08:34:28;;;;;;;8.32;3.75;;;-1.50;99.90;;;;;;5059579;28;20120;-77
2021/01/09 08:36:56;;;;;;;7.00;4.07;;;-1.60;99.90;;;;;;5063572;28;20119;-77
2021/01/09 08:39:22;;;;;;;7.47;3.72;;;-1.50;99.90;;;;;;5060245;28;20111;-77
2021/01/09 08:41:48;;;;;;;9.77;3.88;;;-1.50;99.90;;;;;;5055094;28;20037;-77
2021/01/09 08:44:15;;;;;;;9.07;4.25;;;-1.30;99.90;;;;;;5061992;28;20052;-78
2021/01/09 08:46:43;;;;;;;10.30;4.30;;;-1.20;99.90;;;;;;5060691;28;21031;-77
2021/01/09 08:49:27;;;;;;;9.30;4.15;;;-1.20;99.90;;;;;;5057198;28;20051;-77
2021/01/09 08:52:15;;;;;;;7.32;4.32;;;-1.10;99.90;;;;;;5057635;28;20056;-78
2021/01/09 08:54:44;;;;;;;9.00;4.20;;;-1.10;99.90;;;;;;5059116;28;20111;-77
2021/01/09 08:57:13;;;;;;;7.68;4.18;;;-1.10;99.90;;;;;;5051756;28;20492;-77
2021/01/09 08:59:39;;;;;;;9.32;4.65;;;-1.00;99.90;;;;;;5058583;28;20119;-77
2021/01/09 09:02:10;;;;;;;9.13;4.32;;;-1.00;99.90;;;;;;5062705;28;20012;-77
2021/01/09 09:04:40;;;;;;;9.05;4.57;;;-0.90;99.90;;;;;;5059778;28;20040;-78
2021/01/09 09:07:08;;;;;;;8.52;4.20;;;-0.90;99.90;;;;;;5058492;28;20037;-77
2021/01/09 09:09:37;;;;;;;7.18;4.10;;;-0.90;99.90;;;;;;5066928;28;20037;-77
2021/01/09 09:12:03;;;;;;;10.70;4.95;;;-0.80;99.90;;;;;;5062205;28;20029;-77
2021/01/09 09:14:29;;;;;;;9.70;4.63;;;-0.80;99.90;;;;;;5064707;28;20028;-77
2021/01/09 09:17:00;;;;;;;9.50;4.75;;;-0.70;99.90;;;;;;5058463;28;20042;-77
2021/01/09 09:19:26;;;;;;;8.82;4.28;;;-0.60;99.90;;;;;;5056442;28;20051;-77
2021/01/09 09:21:59;;;;;;;10.95;4.60;;;-0.70;99.90;;;;;;5059689;28;20474;-77
2021/01/09 09:24:44;;;;;;;8.77;5.07;;;-0.60;99.90;;;;;;5063024;28;20060;-77
2021/01/09 09:27:38;;;;;;;10.20;4.75;;;-0.60;99.90;;;;;;5062981;28;20028;-77
2021/01/09 09:30:20;;;;;;;7.88;4.25;;;-0.50;99.90;;;;;;5053569;28;20043;-77
2021/01/09 09:32:46;;;;;;;10.68;5.38;;;-0.60;99.90;;;;;;5063060;28;20032;-78
2021/01/09 09:35:24;;;;;;;10.25;4.40;;;-0.50;99.90;;;;;;5068005;28;20108;-78
2021/01/09 09:37:50;;;;;;;8.82;4.72;;;-0.50;99.90;;;;;;5052654;28;20051;-77
2021/01/09 09:40:23;;;;;;;9.35;4.57;;;-0.50;99.90;;;;;;5068956;28;20032;-78
2021/01/09 09:42:49;;;;;;;11.18;5.97;;;-0.50;99.90;;;;;;5063888;28;20024;-78
2021/01/09 09:45:16;;;;;;;9.70;4.20;;;-0.40;99.90;;;;;;5056889;28;20063;-78
2021/01/09 09:47:49;;;;;;;7.72;4.20;;;-0.40;99.90;;;;;;5066730;28;20070;-78
2021/01/09 09:50:23;;;;;;;7.50;4.30;;;-0.40;99.90;;;;;;5067286;28;20037;-78
2021/01/09 09:52:59;;;;;;;9.82;4.57;;;-0.40;99.90;;;;;;5077150;28;20035;-78
2021/01/09 09:55:25;;;;;;;10.98;5.30;;;-0.40;99.90;;;;;;5069525;28;20035;-78
2021/01/09 09:58:10;;;;;;;10.13;4.82;;;-0.30;99.90;;;;;;5066795;28;20104;-77
2021/01/09 10:00:45;;;;;;;7.97;3.92;;;-0.30;99.90;;;;;;5072375;28;20020;-78
2021/01/09 10:03:11;;;;;;;8.93;4.45;;;-0.20;99.90;;;;;;5071003;28;20399;-78
2021/01/09 10:05:37;;;;;;;7.20;4.32;;;-0.20;99.90;;;;;;5071570;28;20028;-78
2021/01/09 10:08:15;;;;;;;11.93;4.78;;;-0.10;99.90;;;;;;5069796;28;20020;-78
2021/01/09 10:10:43;;;;;;;9.88;4.60;;;0.00;99.90;;;;;;5067015;28;20115;-78
2021/01/09 10:13:09;;;;;;;10.52;4.95;;;0.00;99.90;;;;;;5061629;28;20028;-77
2021/01/09 10:15:35;;;;;;;9.85;4.45;;;0.10;99.90;;;;;;5049546;28;20465;-78
2021/01/09 10:18:01;;;;;;;9.68;4.72;;;0.20;99.90;;;;;;5067495;28;20028;-77
2021/01/09 10:20:28;;;;;;;8.27;4.78;;;0.20;99.90;;;;;;5070132;28;20045;-78
2021/01/09 10:22:54;;;;;;;9.57;4.05;;;0.20;99.90;;;;;;5051947;28;20052;-78
2021/01/09 10:25:20;;;;;;;13.68;5.85;;;0.30;99.90;;;;;;5075591;28;20082;-77
2021/01/09 10:27:46;;;;;;;9.52;5.10;;;0.30;99.90;;;;;;5091627;28;20028;-77
2021/01/09 10:30:12;;;;;;;9.63;5.00;;;0.30;99.90;;;;;;5090488;28;20498;-77
2021/01/09 10:32:38;;;;;;;9.63;4.45;;;0.30;99.90;;;;;;5092332;28;20032;-77
2021/01/09 10:35:05;;;;;;;8.65;4.57;;;0.40;99.90;;;;;;5090112;28;20081;-77
2021/01/09 10:37:31;;;;;;;9.82;4.65;;;0.40;99.90;;;;;;5084403;28;20037;-77
2021/01/09 10:39:57;;;;;;;10.30;4.85;;;0.50;99.90;;;;;;5056226;28;20039;-77
2021/01/09 10:42:22;;;;;;;10.30;5.03;;;0.50;99.90;;;;;;5040534;28;20111;-77
2021/01/09 10:44:48;;;;;;;9.70;5.32;;;0.50;99.90;;;;;;5074409;28;20051;-77
2021/01/09 10:47:14;;;;;;;9.05;4.82;;;0.60;99.90;;;;;;5074987;28;20036;-77
2021/01/09 10:49:40;;;;;;;8.15;4.47;;;0.60;99.90;;;;;;5071617;28;20032;-77
2021/01/09 10:52:05;;;;;;;8.98;4.53;;;0.60;99.90;;;;;;5056502;28;20625;-77
2021/01/09 10:54:31;;;;;;;11.60;5.05;;;0.60;99.90;;;;;;5072899;28;20043;-77
2021/01/09 10:56:57;;;;;;;11.07;4.82;;;0.60;99.90;;;;;;5072660;28;20025;-77
2021/01/09 10:59:22;;;;;;;8.07;4.38;;;0.60;99.90;;;;;;5073034;28;20785;-77
2021/01/09 11:01:48;;;;;;;10.70;5.43;;;0.70;99.90;;;;;;5073171;28;20048;-77
2021/01/09 11:04:14;;;;;;;11.20;5.05;;;0.70;99.90;;;;;;5073124;28;20063;-77
2021/01/09 11:06:39;;;;;;;12.45;5.47;;;0.80;99.90;;;;;;5055887;28;20033;-77
2021/01/09 11:09:05;;;;;;;9.40;4.75;;;0.70;99.90;;;;;;5082622;28;20071;-77
2021/01/09 11:11:31;;;;;;;7.13;4.25;;;0.80;99.90;;;;;;5091976;28;20039;-77
2021/01/09 11:13:57;;;;;;;11.05;5.40;;;0.80;99.90;;;;;;5089098;28;20486;-77
2021/01/09 11:16:24;;;;;;;10.05;5.13;;;0.80;99.90;;;;;;5073790;28;20036;-77
2021/01/09 11:18:51;;;;;;;12.48;5.82;;;0.80;99.90;;;;;;5071857;28;20032;-77
2021/01/09 11:21:18;;;;;;;7.45;4.47;;;0.80;99.90;;;;;;5072940;28;20025;-77
2021/01/09 11:23:45;;;;;;;10.50;4.75;;;0.80;99.90;;;;;;5052479;28;20487;-77
2021/01/09 11:26:12;;;;;;;8.57;4.40;;;0.80;99.90;;;;;;5051486;28;20540;-77
2021/01/09 11:28:39;;;;;;;9.77;4.63;;;0.80;99.90;;;;;;5066760;28;20076;-77
2021/01/09 11:31:08;;;;;;;8.82;4.55;;;0.80;99.90;;;;;;5059758;28;20044;-78
2021/01/09 11:33:34;;;;;;;9.43;4.97;;;0.80;99.90;;;;;;5072519;28;20024;-78
2021/01/09 11:36:00;;;;;;;8.02;4.68;;;0.80;99.90;;;;;;5090787;28;20685;-78
2021/01/09 11:38:26;;;;;;;9.82;5.03;;;0.80;99.90;;;;;;5076515;28;20044;-78
2021/01/09 11:40:51;;;;;;;10.55;5.35;;;0.90;99.90;;;;;;5072772;28;20028;-78
2021/01/09 11:43:17;;;;;;;11.18;5.40;;;0.90;99.90;;;;;;5074100;28;20055;-78
2021/01/09 11:45:43;;;;;;;9.63;5.13;;;0.90;99.90;;;;;;5074601;28;20084;-78
2021/01/09 11:48:09;;;;;;;7.90;4.35;;;0.90;99.90;;;;;;5054126;28;20071;-76
2021/01/09 11:50:35;;;;;;;9.65;5.20;;;1.00;99.90;;;;;;5071232;28;20060;-76
2021/01/09 11:53:01;;;;;;;10.63;5.10;;;1.00;99.90;;;;;;5070626;28;20048;-76
2021/01/09 11:55:27;;;;;;;8.95;4.60;;;1.00;99.90;;;;;;5072177;28;20040;-76
2021/01/09 11:57:52;;;;;;;10.35;5.10;;;1.10;99.90;;;;;;5070255;28;20037;-76
2021/01/09 12:00:20;;;;;;;11.70;5.22;;;1.10;99.90;;;;;;5069424;28;20033;-76
2021/01/09 12:02:46;;;;;;;8.93;5.05;;;1.20;99.90;;;;;;5071845;28;20438;-76
2021/01/09 12:05:11;;;;;;;12.23;5.45;;;1.20;99.90;;;;;;5071877;28;20104;-76
2021/01/09 12:07:37;;;;;;;10.98;5.43;;;1.20;99.90;;;;;;5071731;28;20399;-76
2021/01/09 12:10:07;;;;;;;11.18;5.68;;;1.20;99.90;;;;;;5069265;28;20040;-76
2021/01/09 12:12:33;;;;;;;9.65;5.13;;;1.20;99.90;;;;;;5070291;28;20039;-76
2021/01/09 12:14:59;;;;;;;11.50;5.18;;;1.20;99.90;;;;;;5070460;28;20108;-76
2021/01/09 12:17:25;;;;;;;10.57;4.47;;;1.20;99.90;;;;;;5069976;28;20186;-76
2021/01/09 12:19:51;;;;;;;8.85;4.70;;;1.20;99.90;;;;;;5069933;28;20039;-76
2021/01/09 12:22:16;;;;;;;8.95;4.72;;;1.20;99.90;;;;;;5070147;28;20021;-76
2021/01/09 12:24:42;;;;;;;8.70;4.70;;;1.20;99.90;;;;;;5070113;28;20060;-76
2021/01/09 12:27:09;;;;;;;11.68;5.53;;;1.20;99.90;;;;;;5071071;28;20040;-77
2021/01/09 12:29:35;;;;;;;10.75;5.22;;;1.20;99.90;;;;;;5069039;28;20047;-76
2021/01/09 12:32:01;;;;;;;11.35;5.10;;;1.20;99.90;;;;;;5069829;28;20040;-76
2021/01/09 12:34:26;;;;;;;9.90;4.95;;;1.20;99.90;;;;;;5071778;28;20428;-76
2021/01/09 12:36:53;;;;;;;9.93;5.15;;;1.20;99.90;;;;;;5073301;28;20028;-77
2021/01/09 12:39:19;;;;;;;10.00;4.93;;;1.20;99.90;;;;;;5069560;28;20028;-76
2021/01/09 12:41:45;;;;;;;8.95;4.72;;;1.20;99.90;;;;;;5070261;28;20108;-76
2021/01/09 12:44:11;;;;;;;8.10;4.72;;;1.10;99.90;;;;;;5069784;28;20103;-76
2021/01/09 12:46:45;;;;;;;7.35;4.30;;;1.10;99.90;;;;;;5069698;28;20163;-78
2021/01/09 12:49:13;;;;;;;9.40;4.47;;;1.10;99.90;;;;;;5068844;28;20513;-77
2021/01/09 12:51:39;;;;;;;9.07;4.45;;;1.10;99.90;;;;;;5069348;28;20028;-78
2021/01/09 12:54:06;;;;;;;8.15;3.85;;;1.10;99.90;;;;;;5052977;28;20127;-77